sensor_id;sensor_type;location;lat;lon;timestamp;pressure;altitude;pressure_sealevel;temperature;humidity
59487;BME280;45298;54.918;73.504;2023-05-02T00:01:15;101219.41;;;-4.35;65.32
59487;BME280;45298;54.918;73.504;2023-05-02T00:03:44;101221.19;;;-4.33;65.09
59487;BME280;45298;54.918;73.504;2023-05-02T00:06:13;101322.44;;;-3.71;65.42
59487;BME280;45298;54.918;73.504;2023-05-02T00:08:42;101228.28;;;-4.22;64.94
59487;BME280;45298;54.918;73.504;2023-05-02T00:11:10;101319.97;;;-3.67;65.28
59487;BME280;45298;54.918;73.504;2023-05-02T00:13:39;101326.25;;;-3.52;65.69
59487;BME280;45298;54.918;73.504;2023-05-02T00:16:08;101336.75;;;-3.44;65.71
59487;BME280;45298;54.918;73.504;2023-05-02T00:18:38;101335.13;;;-3.38;65.40
59487;BME280;45298;54.918;73.504;2023-05-02T00:21:07;101304.69;;;-3.48;65.66
59487;BME280;45298;54.918;73.504;2023-05-02T00:23:36;101330.94;;;-3.29;65.92
59487;BME280;45298;54.918;73.504;2023-05-02T00:26:08;101335.47;;;-3.16;65.71
59487;BME280;45298;54.918;73.504;2023-05-02T00:28:41;101332.91;;;-3.13;65.72
59487;BME280;45298;54.918;73.504;2023-05-02T00:31:10;101308.75;;;-3.09;65.51
59487;BME280;45298;54.918;73.504;2023-05-02T00:33:39;101308.91;;;-2.96;65.58
59487;BME280;45298;54.918;73.504;2023-05-02T00:36:18;101313.41;;;-2.86;65.76
59487;BME280;45298;54.918;73.504;2023-05-02T00:38:47;101326.63;;;-2.67;65.54
59487;BME280;45298;54.918;73.504;2023-05-02T00:41:16;101298.78;;;-2.78;65.43
59487;BME280;45298;54.918;73.504;2023-05-02T00:43:45;101356.41;;;-2.40;65.45
59487;BME280;45298;54.918;73.504;2023-05-02T00:46:14;101342.66;;;-2.32;65.10
59487;BME280;45298;54.918;73.504;2023-05-02T00:48:43;101330.50;;;-2.34;65.09
59487;BME280;45298;54.918;73.504;2023-05-02T00:51:13;101368.94;;;-2.08;64.89
59487;BME280;45298;54.918;73.504;2023-05-02T00:53:41;101354.22;;;-2.05;65.06
59487;BME280;45298;54.918;73.504;2023-05-02T00:56:10;101362.19;;;-1.89;64.88
59487;BME280;45298;54.918;73.504;2023-05-02T00:58:39;101375.38;;;-1.71;64.60
59487;BME280;45298;54.918;73.504;2023-05-02T01:01:24;101371.13;;;-1.62;64.69
59487;BME280;45298;54.918;73.504;2023-05-02T01:07:09;101388.78;;;-1.27;63.82
59487;BME280;45298;54.918;73.504;2023-05-02T01:12:30;101395.13;;;-0.94;62.98
59487;BME280;45298;54.918;73.504;2023-05-02T01:15:04;101382.22;;;-0.79;62.58
59487;BME280;45298;54.918;73.504;2023-05-02T01:17:34;101387.84;;;0.19;60.66
59487;BME280;45298;54.918;73.504;2023-05-02T01:20:07;101372.06;;;1.68;56.80
59487;BME280;45298;54.918;73.504;2023-05-02T01:22:38;101360.91;;;2.83;53.89
59487;BME280;45298;54.918;73.504;2023-05-02T01:25:32;101403.13;;;4.20;50.76
59487;BME280;45298;54.918;73.504;2023-05-02T01:30:41;101376.81;;;5.30;47.40
59487;BME280;45298;54.918;73.504;2023-05-02T01:33:14;101375.53;;;5.51;46.02
59487;BME280;45298;54.918;73.504;2023-05-02T01:35:46;101415.59;;;6.11;45.33
59487;BME280;45298;54.918;73.504;2023-05-02T01:38:18;101380.69;;;6.42;44.10
59487;BME280;45298;54.918;73.504;2023-05-02T01:40:49;101333.00;;;6.52;43.20
59487;BME280;45298;54.918;73.504;2023-05-02T01:43:20;101415.72;;;7.20;42.12
59487;BME280;45298;54.918;73.504;2023-05-02T01:45:50;101392.09;;;7.15;41.72
59487;BME280;45298;54.918;73.504;2023-05-02T01:48:21;101414.56;;;7.30;41.06
59487;BME280;45298;54.918;73.504;2023-05-02T01:50:51;101387.94;;;7.05;41.15
59487;BME280;45298;54.918;73.504;2023-05-02T01:53:21;101398.78;;;7.29;40.88
59487;BME280;45298;54.918;73.504;2023-05-02T01:55:53;101388.69;;;7.43;40.55
59487;BME280;45298;54.918;73.504;2023-05-02T01:58:26;101406.44;;;7.71;39.93
59487;BME280;45298;54.918;73.504;2023-05-02T02:00:59;101423.66;;;7.84;38.98
59487;BME280;45298;54.918;73.504;2023-05-02T02:03:32;101400.16;;;7.42;39.55
59487;BME280;45298;54.918;73.504;2023-05-02T02:06:02;101411.84;;;7.33;39.78
59487;BME280;45298;54.918;73.504;2023-05-02T02:08:32;101388.56;;;6.80;40.48
59487;BME280;45298;54.918;73.504;2023-05-02T02:11:08;101385.09;;;6.78;40.49
59487;BME280;45298;54.918;73.504;2023-05-02T02:13:44;101433.47;;;6.77;40.64
59487;BME280;45298;54.918;73.504;2023-05-02T02:16:21;101430.81;;;6.78;40.63
59487;BME280;45298;54.918;73.504;2023-05-02T02:18:54;101424.75;;;6.75;40.97
59487;BME280;45298;54.918;73.504;2023-05-02T02:21:25;101356.19;;;6.37;40.71
59487;BME280;45298;54.918;73.504;2023-05-02T02:23:59;101402.13;;;6.64;40.74
59487;BME280;45298;54.918;73.504;2023-05-02T02:26:29;101402.63;;;6.80;40.46
59487;BME280;45298;54.918;73.504;2023-05-02T02:28:59;101424.19;;;6.96;41.07
59487;BME280;45298;54.918;73.504;2023-05-02T02:31:32;101422.88;;;7.15;40.59
59487;BME280;45298;54.918;73.504;2023-05-02T02:34:02;101356.91;;;6.80;40.33
59487;BME280;45298;54.918;73.504;2023-05-02T02:36:54;101434.75;;;7.33;39.93
59487;BME280;45298;54.918;73.504;2023-05-02T02:42:31;101443.22;;;7.11;40.52
59487;BME280;45298;54.918;73.504;2023-05-02T02:45:27;101443.09;;;7.16;40.87
59487;BME280;45298;54.918;73.504;2023-05-02T02:48:37;101443.34;;;7.39;40.75
59487;BME280;45298;54.918;73.504;2023-05-02T02:51:13;101456.00;;;7.60;40.43
59487;BME280;45298;54.918;73.504;2023-05-02T02:56:59;101344.63;;;7.14;40.88
59487;BME280;45298;54.918;73.504;2023-05-02T02:59:36;101435.69;;;7.63;40.24
59487;BME280;45298;54.918;73.504;2023-05-02T03:02:12;101437.59;;;7.58;40.63
59487;BME280;45298;54.918;73.504;2023-05-02T03:04:43;101442.56;;;7.69;40.66
59487;BME280;45298;54.918;73.504;2023-05-02T03:07:14;101412.31;;;7.49;40.69
59487;BME280;45298;54.918;73.504;2023-05-02T03:09:47;101406.44;;;7.71;40.09
59487;BME280;45298;54.918;73.504;2023-05-02T03:12:20;101417.59;;;7.81;40.22
59487;BME280;45298;54.918;73.504;2023-05-02T03:14:50;101405.97;;;7.86;40.26
59487;BME280;45298;54.918;73.504;2023-05-02T03:17:19;101453.16;;;8.30;39.79
59487;BME280;45298;54.918;73.504;2023-05-02T03:19:50;101403.13;;;7.94;39.20
59487;BME280;45298;54.918;73.504;2023-05-02T03:22:19;101432.28;;;8.21;39.19
59487;BME280;45298;54.918;73.504;2023-05-02T03:24:49;101439.06;;;8.30;39.32
59487;BME280;45298;54.918;73.504;2023-05-02T03:27:18;101427.59;;;8.31;38.82
59487;BME280;45298;54.918;73.504;2023-05-02T03:29:47;101432.72;;;8.36;38.41
59487;BME280;45298;54.918;73.504;2023-05-02T03:32:19;101416.91;;;8.34;39.14
59487;BME280;45298;54.918;73.504;2023-05-02T03:34:48;101425.22;;;8.52;38.63
59487;BME280;45298;54.918;73.504;2023-05-02T03:37:18;101410.06;;;8.57;37.88
59487;BME280;45298;54.918;73.504;2023-05-02T03:39:46;101421.28;;;8.65;38.10
59487;BME280;45298;54.918;73.504;2023-05-02T03:42:15;101423.72;;;8.98;38.39
59487;BME280;45298;54.918;73.504;2023-05-02T03:44:44;101427.31;;;9.22;37.56
59487;BME280;45298;54.918;73.504;2023-05-02T03:47:13;101432.22;;;9.35;37.72
59487;BME280;45298;54.918;73.504;2023-05-02T03:49:43;101407.09;;;9.21;37.16
59487;BME280;45298;54.918;73.504;2023-05-02T03:52:13;101418.53;;;9.22;36.71
59487;BME280;45298;54.918;73.504;2023-05-02T03:54:43;101444.03;;;9.25;36.39
59487;BME280;45298;54.918;73.504;2023-05-02T03:57:12;101421.88;;;9.52;36.29
59487;BME280;45298;54.918;73.504;2023-05-02T03:59:41;101415.44;;;9.85;36.27
59487;BME280;45298;54.918;73.504;2023-05-02T04:02:22;101427.06;;;10.05;35.23
59487;BME280;45298;54.918;73.504;2023-05-02T04:04:51;101425.59;;;9.72;34.59
59487;BME280;45298;54.918;73.504;2023-05-02T04:07:22;101430.94;;;9.47;34.89
59487;BME280;45298;54.918;73.504;2023-05-02T04:09:58;101440.44;;;9.52;34.12
59487;BME280;45298;54.918;73.504;2023-05-02T04:12:29;101419.53;;;9.18;34.27
59487;BME280;45298;54.918;73.504;2023-05-02T04:14:58;101429.88;;;9.26;34.31
59487;BME280;45298;54.918;73.504;2023-05-02T04:17:29;101427.47;;;9.45;33.95
59487;BME280;45298;54.918;73.504;2023-05-02T04:19:58;101431.34;;;9.34;33.79
59487;BME280;45298;54.918;73.504;2023-05-02T04:22:31;101435.06;;;9.29;34.69
59487;BME280;45298;54.918;73.504;2023-05-02T04:25:05;101415.84;;;8.97;33.86
59487;BME280;45298;54.918;73.504;2023-05-02T04:27:36;101429.69;;;8.78;33.92
59487;BME280;45298;54.918;73.504;2023-05-02T04:30:09;101406.34;;;8.91;34.20
59487;BME280;45298;54.918;73.504;2023-05-02T04:32:40;101408.56;;;9.30;33.67
59487;BME280;45298;54.918;73.504;2023-05-02T04:35:10;101418.44;;;9.25;33.53
59487;BME280;45298;54.918;73.504;2023-05-02T04:37:39;101421.28;;;9.19;33.49
59487;BME280;45298;54.918;73.504;2023-05-02T04:40:09;101385.94;;;9.20;33.82
59487;BME280;45298;54.918;73.504;2023-05-02T04:42:39;101411.03;;;9.60;32.89
59487;BME280;45298;54.918;73.504;2023-05-02T04:45:18;101399.56;;;9.83;32.53
59487;BME280;45298;54.918;73.504;2023-05-02T04:47:48;101415.75;;;10.23;32.32
59487;BME280;45298;54.918;73.504;2023-05-02T04:50:17;101417.94;;;10.36;32.08
59487;BME280;45298;54.918;73.504;2023-05-02T04:52:46;101425.94;;;10.34;31.91
59487;BME280;45298;54.918;73.504;2023-05-02T04:55:15;101360.63;;;9.86;32.16
59487;BME280;45298;54.918;73.504;2023-05-02T04:57:44;101404.72;;;9.88;32.78
59487;BME280;45298;54.918;73.504;2023-05-02T05:00:15;101414.25;;;9.92;32.42
59487;BME280;45298;54.918;73.504;2023-05-02T05:02:46;101409.34;;;9.81;32.10
59487;BME280;45298;54.918;73.504;2023-05-02T05:05:15;101432.66;;;9.97;31.23
59487;BME280;45298;54.918;73.504;2023-05-02T05:07:44;101406.56;;;10.10;31.11
59487;BME280;45298;54.918;73.504;2023-05-02T05:10:14;101416.06;;;10.39;30.97
59487;BME280;45298;54.918;73.504;2023-05-02T05:12:45;101423.28;;;10.80;30.71
59487;BME280;45298;54.918;73.504;2023-05-02T05:15:15;101437.91;;;10.68;29.98
59487;BME280;45298;54.918;73.504;2023-05-02T05:17:49;101427.53;;;10.40;29.76
59487;BME280;45298;54.918;73.504;2023-05-02T05:20:18;101404.59;;;10.39;30.06
59487;BME280;45298;54.918;73.504;2023-05-02T05:22:49;101437.47;;;10.57;30.26
59487;BME280;45298;54.918;73.504;2023-05-02T05:25:19;101412.34;;;10.43;30.00
59487;BME280;45298;54.918;73.504;2023-05-02T05:27:51;101422.22;;;10.62;30.57
59487;BME280;45298;54.918;73.504;2023-05-02T05:30:23;101424.00;;;10.84;30.00
59487;BME280;45298;54.918;73.504;2023-05-02T05:32:53;101422.28;;;10.83;29.75
59487;BME280;45298;54.918;73.504;2023-05-02T05:35:23;101392.38;;;10.57;29.63
59487;BME280;45298;54.918;73.504;2023-05-02T05:37:52;101406.13;;;10.67;30.18
59487;BME280;45298;54.918;73.504;2023-05-02T05:40:21;101406.66;;;10.97;29.44
59487;BME280;45298;54.918;73.504;2023-05-02T05:42:54;101424.59;;;11.13;29.49
59487;BME280;45298;54.918;73.504;2023-05-02T05:45:28;101435.78;;;10.99;29.38
59487;BME280;45298;54.918;73.504;2023-05-02T05:47:56;101421.00;;;11.14;29.16
59487;BME280;45298;54.918;73.504;2023-05-02T05:50:28;101427.59;;;11.05;28.86
59487;BME280;45298;54.918;73.504;2023-05-02T05:52:57;101360.28;;;10.41;28.89
59487;BME280;45298;54.918;73.504;2023-05-02T05:55:26;101402.81;;;10.62;29.27
59487;BME280;45298;54.918;73.504;2023-05-02T05:57:56;101394.44;;;10.71;29.56
59487;BME280;45298;54.918;73.504;2023-05-02T06:00:25;101415.41;;;11.20;28.79
59487;BME280;45298;54.918;73.504;2023-05-02T06:02:54;101434.09;;;11.39;28.71
59487;BME280;45298;54.918;73.504;2023-05-02T06:05:29;101392.56;;;11.57;28.06
59487;BME280;45298;54.918;73.504;2023-05-02T06:07:59;101411.16;;;11.57;28.72
59487;BME280;45298;54.918;73.504;2023-05-02T06:10:27;101410.25;;;11.38;28.28
59487;BME280;45298;54.918;73.504;2023-05-02T06:12:57;101418.53;;;11.30;28.71
59487;BME280;45298;54.918;73.504;2023-05-02T06:15:32;101408.84;;;11.08;29.02
59487;BME280;45298;54.918;73.504;2023-05-02T06:18:04;101414.44;;;11.43;28.89
59487;BME280;45298;54.918;73.504;2023-05-02T06:20:35;101405.31;;;11.70;28.47
59487;BME280;45298;54.918;73.504;2023-05-02T06:23:04;101414.66;;;11.78;28.28
59487;BME280;45298;54.918;73.504;2023-05-02T06:25:36;101362.41;;;11.58;29.18
59487;BME280;45298;54.918;73.504;2023-05-02T06:28:05;101419.78;;;12.23;28.29
59487;BME280;45298;54.918;73.504;2023-05-02T06:30:34;101419.97;;;12.37;28.14
59487;BME280;45298;54.918;73.504;2023-05-02T06:33:04;101418.28;;;12.54;28.48
59487;BME280;45298;54.918;73.504;2023-05-02T06:35:33;101422.25;;;12.64;27.55
59487;BME280;45298;54.918;73.504;2023-05-02T06:38:01;101394.84;;;12.62;27.66
59487;BME280;45298;54.918;73.504;2023-05-02T06:40:30;101410.19;;;12.75;26.76
59487;BME280;45298;54.918;73.504;2023-05-02T06:42:59;101401.69;;;12.49;27.40
59487;BME280;45298;54.918;73.504;2023-05-02T06:45:28;101423.06;;;12.47;27.69
59487;BME280;45298;54.918;73.504;2023-05-02T06:47:57;101409.25;;;12.01;26.98
59487;BME280;45298;54.918;73.504;2023-05-02T06:50:25;101348.13;;;11.80;27.94
59487;BME280;45298;54.918;73.504;2023-05-02T06:52:54;101397.28;;;12.48;28.49
59487;BME280;45298;54.918;73.504;2023-05-02T06:55:23;101389.16;;;12.88;26.83
59487;BME280;45298;54.918;73.504;2023-05-02T06:57:53;101394.88;;;13.15;27.62
59487;BME280;45298;54.918;73.504;2023-05-02T07:00:22;101336.28;;;12.97;27.00
59487;BME280;45298;54.918;73.504;2023-05-02T07:02:51;101403.38;;;13.41;27.18
59487;BME280;45298;54.918;73.504;2023-05-02T07:05:19;101381.09;;;13.42;27.17
59487;BME280;45298;54.918;73.504;2023-05-02T07:07:48;101393.09;;;13.51;25.88
59487;BME280;45298;54.918;73.504;2023-05-02T07:10:17;101364.31;;;12.69;26.90
59487;BME280;45298;54.918;73.504;2023-05-02T07:12:46;101382.44;;;12.44;26.85
59487;BME280;45298;54.918;73.504;2023-05-02T07:15:14;101401.34;;;12.37;27.26
59487;BME280;45298;54.918;73.504;2023-05-02T07:17:44;101395.81;;;12.79;27.29
59487;BME280;45298;54.918;73.504;2023-05-02T07:20:15;101393.94;;;13.16;26.48
59487;BME280;45298;54.918;73.504;2023-05-02T07:22:43;101379.81;;;12.61;27.01
59487;BME280;45298;54.918;73.504;2023-05-02T08:02:20;101396.22;;;13.75;25.25
59487;BME280;45298;54.918;73.504;2023-05-02T08:04:51;101407.72;;;13.59;25.99
59487;BME280;45298;54.918;73.504;2023-05-02T08:07:21;101398.13;;;13.73;26.94
59487;BME280;45298;54.918;73.504;2023-05-02T08:09:50;101387.56;;;13.87;25.56
59487;BME280;45298;54.918;73.504;2023-05-02T08:12:19;101388.97;;;14.11;26.04
59487;BME280;45298;54.918;73.504;2023-05-02T08:14:47;101378.72;;;14.19;26.42
59487;BME280;45298;54.918;73.504;2023-05-02T08:17:16;101393.09;;;14.48;25.58
59487;BME280;45298;54.918;73.504;2023-05-02T08:19:45;101316.72;;;13.66;25.57
59487;BME280;45298;54.918;73.504;2023-05-02T08:22:14;101391.16;;;13.70;25.06
59487;BME280;45298;54.918;73.504;2023-05-02T08:24:43;101377.47;;;13.25;25.62
59487;BME280;45298;54.918;73.504;2023-05-02T08:27:12;101372.69;;;13.32;25.91
59487;BME280;45298;54.918;73.504;2023-05-02T08:29:41;101363.84;;;13.32;25.53
59487;BME280;45298;54.918;73.504;2023-05-02T08:32:10;101355.00;;;13.65;26.29
59487;BME280;45298;54.918;73.504;2023-05-02T08:34:39;101364.06;;;13.94;25.68
59487;BME280;45298;54.918;73.504;2023-05-02T08:37:09;101388.84;;;13.80;26.03
59487;BME280;45298;54.918;73.504;2023-05-02T08:39:39;101383.53;;;13.80;26.66
59487;BME280;45298;54.918;73.504;2023-05-02T08:42:08;101366.69;;;13.96;26.10
59487;BME280;45298;54.918;73.504;2023-05-02T08:44:37;101387.41;;;14.39;25.19
59487;BME280;45298;54.918;73.504;2023-05-02T08:47:10;101391.44;;;14.62;24.71
59487;BME280;45298;54.918;73.504;2023-05-02T08:49:41;101369.59;;;14.39;24.61
59487;BME280;45298;54.918;73.504;2023-05-02T08:52:11;101357.81;;;13.79;24.82
59487;BME280;45298;54.918;73.504;2023-05-02T08:54:43;101396.44;;;14.04;25.03
59487;BME280;45298;54.918;73.504;2023-05-02T08:57:12;101387.84;;;14.15;24.83
59487;BME280;45298;54.918;73.504;2023-05-02T08:59:43;101388.13;;;13.77;24.80
59487;BME280;45298;54.918;73.504;2023-05-02T09:05:28;101372.03;;;13.62;25.51
59487;BME280;45298;54.918;73.504;2023-05-02T09:08:01;101397.63;;;13.98;25.10
59487;BME280;45298;54.918;73.504;2023-05-02T09:10:30;101378.22;;;14.12;24.92
59487;BME280;45298;54.918;73.504;2023-05-02T09:13:37;101370.97;;;14.14;24.91
59487;BME280;45298;54.918;73.504;2023-05-02T09:16:09;101407.66;;;14.27;24.37
59487;BME280;45298;54.918;73.504;2023-05-02T09:18:46;101319.63;;;13.45;24.58
59487;BME280;45298;54.918;73.504;2023-05-02T09:21:18;101385.88;;;13.69;25.47
59487;BME280;45298;54.918;73.504;2023-05-02T09:23:56;101331.53;;;13.55;24.98
59487;BME280;45298;54.918;73.504;2023-05-02T09:26:28;101367.31;;;13.67;25.18
59487;BME280;45298;54.918;73.504;2023-05-02T09:29:03;101389.88;;;13.78;24.77
59487;BME280;45298;54.918;73.504;2023-05-02T09:31:34;101380.50;;;13.86;24.92
59487;BME280;45298;54.918;73.504;2023-05-02T09:34:15;101370.97;;;13.82;24.56
59487;BME280;45298;54.918;73.504;2023-05-02T09:36:46;101400.31;;;13.82;24.73
59487;BME280;45298;54.918;73.504;2023-05-02T09:39:21;101385.00;;;13.52;25.46
59487;BME280;45298;54.918;73.504;2023-05-02T09:41:53;101375.06;;;13.72;24.29
59487;BME280;45298;54.918;73.504;2023-05-02T09:44:26;101383.53;;;13.96;24.96
59487;BME280;45298;54.918;73.504;2023-05-02T09:46:55;101395.66;;;13.86;24.74
59487;BME280;45298;54.918;73.504;2023-05-02T09:49:45;101412.84;;;13.80;24.68
59487;BME280;45298;54.918;73.504;2023-05-02T09:52:18;101408.25;;;13.66;24.33
59487;BME280;45298;54.918;73.504;2023-05-02T09:54:50;101399.69;;;13.77;24.88
59487;BME280;45298;54.918;73.504;2023-05-02T09:57:20;101383.84;;;13.74;24.83
59487;BME280;45298;54.918;73.504;2023-05-02T09:59:56;101385.81;;;13.70;24.31
59487;BME280;45298;54.918;73.504;2023-05-02T10:02:29;101381.47;;;13.52;24.45
59487;BME280;45298;54.918;73.504;2023-05-02T10:05:00;101408.25;;;13.66;24.81
59487;BME280;45298;54.918;73.504;2023-05-02T10:07:30;101395.28;;;13.42;25.20
59487;BME280;45298;54.918;73.504;2023-05-02T10:10:04;101400.97;;;13.35;24.93
59487;BME280;45298;54.918;73.504;2023-05-02T10:12:34;101393.84;;;13.35;25.35
59487;BME280;45298;54.918;73.504;2023-05-02T10:15:09;101414.72;;;13.44;25.60
59487;BME280;45298;54.918;73.504;2023-05-02T10:17:44;101405.28;;;13.37;24.90
59487;BME280;45298;54.918;73.504;2023-05-02T10:20:22;101361.19;;;13.14;25.67
59487;BME280;45298;54.918;73.504;2023-05-02T10:22:58;101412.91;;;13.45;24.81
59487;BME280;45298;54.918;73.504;2023-05-02T10:25:28;101419.63;;;13.52;24.90
59487;BME280;45298;54.918;73.504;2023-05-02T10:27:58;101435.47;;;13.55;25.22
59487;BME280;45298;54.918;73.504;2023-05-02T10:30:29;101413.06;;;13.59;24.75
59487;BME280;45298;54.918;73.504;2023-05-02T10:32:59;101391.09;;;13.54;24.36
59487;BME280;45298;54.918;73.504;2023-05-02T10:35:29;101401.63;;;13.57;25.16
59487;BME280;45298;54.918;73.504;2023-05-02T10:38:00;101420.28;;;13.73;24.74
59487;BME280;45298;54.918;73.504;2023-05-02T10:40:29;101397.53;;;13.50;24.38
59487;BME280;45298;54.918;73.504;2023-05-02T10:42:59;101426.97;;;13.65;25.04
59487;BME280;45298;54.918;73.504;2023-05-02T10:45:37;101420.72;;;13.66;24.99
59487;BME280;45298;54.918;73.504;2023-05-02T10:48:25;101404.28;;;13.57;25.10
59487;BME280;45298;54.918;73.504;2023-05-02T10:50:56;101428.81;;;13.64;24.92
59487;BME280;45298;54.918;73.504;2023-05-02T10:56:21;101420.91;;;13.45;25.40
59487;BME280;45298;54.918;73.504;2023-05-02T10:58:51;101395.91;;;13.30;26.02
59487;BME280;45298;54.918;73.504;2023-05-02T11:04:07;101410.22;;;13.45;25.02
59487;BME280;45298;54.918;73.504;2023-05-02T11:09:31;101413.16;;;13.40;24.98
59487;BME280;45298;54.918;73.504;2023-05-02T11:12:01;101399.13;;;13.19;25.17
59487;BME280;45298;54.918;73.504;2023-05-02T11:17:08;101399.25;;;13.16;24.88
59487;BME280;45298;54.918;73.504;2023-05-02T11:24:48;101420.56;;;13.16;25.01
59487;BME280;45298;54.918;73.504;2023-05-02T11:30:00;101399.91;;;13.04;25.53
59487;BME280;45298;54.918;73.504;2023-05-02T11:35:19;101427.00;;;13.29;25.68
59487;BME280;45298;54.918;73.504;2023-05-02T11:37:56;101397.53;;;13.15;25.59
59487;BME280;45298;54.918;73.504;2023-05-02T11:40:27;101400.06;;;13.00;25.25
59487;BME280;45298;54.918;73.504;2023-05-02T11:42:58;101428.09;;;13.08;24.88
59487;BME280;45298;54.918;73.504;2023-05-02T11:45:34;101413.22;;;13.04;25.50
59487;BME280;45298;54.918;73.504;2023-05-02T11:48:15;101407.09;;;13.02;25.35
59487;BME280;45298;54.918;73.504;2023-05-02T11:53:19;101418.84;;;12.97;24.79
59487;BME280;45298;54.918;73.504;2023-05-02T11:55:53;101396.91;;;12.92;24.87
59487;BME280;45298;54.918;73.504;2023-05-02T11:58:27;101410.47;;;12.88;25.31
59487;BME280;45298;54.918;73.504;2023-05-02T12:01:14;101434.97;;;12.94;25.20
59487;BME280;45298;54.918;73.504;2023-05-02T12:03:43;101437.50;;;12.97;26.24
59487;BME280;45298;54.918;73.504;2023-05-02T12:06:16;101403.78;;;12.79;25.31
59487;BME280;45298;54.918;73.504;2023-05-02T12:08:48;101411.63;;;12.82;26.01
59487;BME280;45298;54.918;73.504;2023-05-02T12:11:23;101418.50;;;12.86;25.39
59487;BME280;45298;54.918;73.504;2023-05-02T12:13:53;101413.97;;;12.88;25.34
59487;BME280;45298;54.918;73.504;2023-05-02T12:16:22;101408.63;;;12.88;25.75
59487;BME280;45298;54.918;73.504;2023-05-02T12:18:51;101362.13;;;12.60;25.82
59487;BME280;45298;54.918;73.504;2023-05-02T12:21:21;101411.41;;;12.87;25.73
59487;BME280;45298;54.918;73.504;2023-05-02T12:23:50;101441.25;;;12.93;25.60
59487;BME280;45298;54.918;73.504;2023-05-02T12:26:23;101432.75;;;12.85;25.26
59487;BME280;45298;54.918;73.504;2023-05-02T12:28:56;101425.31;;;12.74;25.48
59487;BME280;45298;54.918;73.504;2023-05-02T12:31:26;101402.03;;;12.60;26.12
59487;BME280;45298;54.918;73.504;2023-05-02T12:33:58;101425.63;;;12.68;25.96
59487;BME280;45298;54.918;73.504;2023-05-02T12:36:33;101438.56;;;12.76;25.90
59487;BME280;45298;54.918;73.504;2023-05-02T12:39:05;101415.13;;;12.65;25.67
59487;BME280;45298;54.918;73.504;2023-05-02T12:41:38;101364.53;;;12.28;26.45
59487;BME280;45298;54.918;73.504;2023-05-02T12:44:13;101445.31;;;12.64;26.23
59487;BME280;45298;54.918;73.504;2023-05-02T12:47:00;101418.59;;;12.48;26.45
59487;BME280;45298;54.918;73.504;2023-05-02T12:49:29;101446.91;;;12.49;26.10
59487;BME280;45298;54.918;73.504;2023-05-02T12:51:58;101448.09;;;12.43;25.97
59487;BME280;45298;54.918;73.504;2023-05-02T12:54:27;101434.50;;;12.30;25.87
59487;BME280;45298;54.918;73.504;2023-05-02T12:56:58;101451.03;;;12.37;26.27
59487;BME280;45298;54.918;73.504;2023-05-02T12:59:31;101430.41;;;12.23;26.52
59487;BME280;45298;54.918;73.504;2023-05-02T13:02:00;101449.38;;;12.34;26.41
59487;BME280;45298;54.918;73.504;2023-05-02T13:04:37;101422.84;;;12.14;26.76
59487;BME280;45298;54.918;73.504;2023-05-02T13:07:07;101416.72;;;12.12;26.50
59487;BME280;45298;54.918;73.504;2023-05-02T13:09:37;101446.06;;;12.29;26.20
59487;BME280;45298;54.918;73.504;2023-05-02T13:12:06;101445.63;;;12.19;26.26
59487;BME280;45298;54.918;73.504;2023-05-02T13:14:36;101422.50;;;12.02;26.36
59487;BME280;45298;54.918;73.504;2023-05-02T13:17:06;101430.63;;;11.98;26.87
59487;BME280;45298;54.918;73.504;2023-05-02T13:19:36;101450.50;;;12.09;27.00
59487;BME280;45298;54.918;73.504;2023-05-02T13:22:16;101448.06;;;12.05;27.17
59487;BME280;45298;54.918;73.504;2023-05-02T13:24:45;101418.84;;;11.84;27.13
59487;BME280;45298;54.918;73.504;2023-05-02T13:27:14;101407.09;;;11.69;26.96
59487;BME280;45298;54.918;73.504;2023-05-02T13:29:48;101431.53;;;11.77;26.79
59487;BME280;45298;54.918;73.504;2023-05-02T13:32:19;101419.59;;;11.67;26.99
59487;BME280;45298;54.918;73.504;2023-05-02T13:34:49;101441.13;;;11.82;27.10
59487;BME280;45298;54.918;73.504;2023-05-02T13:37:18;101447.28;;;11.82;27.60
59487;BME280;45298;54.918;73.504;2023-05-02T13:39:47;101444.16;;;11.72;27.45
59487;BME280;45298;54.918;73.504;2023-05-02T13:42:18;101444.16;;;11.72;27.27
59487;BME280;45298;54.918;73.504;2023-05-02T13:44:49;101436.88;;;11.57;27.56
59487;BME280;45298;54.918;73.504;2023-05-02T13:47:18;101445.91;;;11.53;27.62
59487;BME280;45298;54.918;73.504;2023-05-02T13:49:47;101441.00;;;11.43;27.79
59487;BME280;45298;54.918;73.504;2023-05-02T13:52:16;101452.50;;;11.44;27.72
59487;BME280;45298;54.918;73.504;2023-05-02T13:54:45;101439.16;;;11.25;27.73
59487;BME280;45298;54.918;73.504;2023-05-02T13:57:14;101478.72;;;11.31;28.12
59487;BME280;45298;54.918;73.504;2023-05-02T13:59:43;101468.38;;;11.25;28.17
59487;BME280;45298;54.918;73.504;2023-05-02T14:02:12;101454.13;;;11.05;28.39
59487;BME280;45298;54.918;73.504;2023-05-02T14:04:44;101460.53;;;10.99;28.61
59487;BME280;45298;54.918;73.504;2023-05-02T14:07:13;101480.69;;;11.05;28.53
59487;BME280;45298;54.918;73.504;2023-05-02T14:09:42;101475.97;;;10.89;28.87
59487;BME280;45298;54.918;73.504;2023-05-02T14:12:12;101475.13;;;10.89;28.96
59487;BME280;45298;54.918;73.504;2023-05-02T14:14:40;101466.06;;;10.72;29.08
59487;BME280;45298;54.918;73.504;2023-05-02T14:17:09;101459.53;;;10.59;29.10
59487;BME280;45298;54.918;73.504;2023-05-02T14:19:38;101473.00;;;10.53;29.35
59487;BME280;45298;54.918;73.504;2023-05-02T14:22:07;101470.78;;;10.42;29.20
59487;BME280;45298;54.918;73.504;2023-05-02T14:24:36;101489.66;;;10.33;29.45